createdAt,value
2018-11-01T00:02:04.226Z,6.70
2018-11-01T00:04:32.544Z,10.70
2018-11-01T00:07:00.101Z,9.73
2018-11-01T00:09:27.684Z,9.57
2018-11-01T00:11:55.238Z,8.37
2018-11-01T00:14:22.792Z,8.70
2018-11-01T00:16:50.877Z,8.43
2018-11-01T00:19:18.434Z,8.37
2018-11-01T00:21:45.980Z,8.30
2018-11-01T00:24:13.564Z,8.37
2018-11-01T00:26:41.124Z,7.40
2018-11-01T00:29:08.695Z,7.97
2018-11-01T00:31:36.276Z,7.37
2018-11-01T00:34:03.837Z,7.63
2018-11-01T00:36:31.390Z,7.60
2018-11-01T00:38:59.010Z,7.53
2018-11-01T00:41:26.568Z,7.17
2018-11-01T00:43:54.125Z,7.77
2018-11-01T00:46:21.738Z,8.03
2018-11-01T00:48:49.291Z,7.97
2018-11-01T00:51:16.850Z,8.40
2018-11-01T00:53:44.445Z,6.97
2018-11-01T00:56:12.768Z,10.53
2018-11-01T00:58:40.315Z,8.23
2018-11-01T01:01:07.900Z,8.67
2018-11-01T01:03:35.863Z,7.60
2018-11-01T01:06:03.419Z,14.70
2018-11-01T01:08:30.974Z,12.10
2018-11-01T01:10:58.573Z,16.03
2018-11-01T01:13:26.136Z,16.53
2018-11-01T01:15:53.699Z,13.23
2018-11-01T01:18:21.542Z,9.93
2018-11-01T01:20:49.095Z,9.82
2018-11-01T01:23:16.653Z,9.27
2018-11-01T01:25:44.250Z,6.93
2018-11-01T01:28:11.796Z,6.43
2018-11-01T01:30:39.350Z,8.80
2018-11-01T01:33:06.961Z,10.02
2018-11-01T01:35:35.276Z,9.50
2018-11-01T01:38:02.848Z,10.90
2018-11-01T01:40:30.473Z,9.80
2018-11-01T01:42:57.986Z,9.77
2018-11-01T01:45:25.939Z,19.67
2018-11-01T01:47:53.553Z,16.77
2018-11-01T01:50:21.899Z,11.93
2018-11-01T01:52:49.443Z,12.77
2018-11-01T01:55:17.030Z,10.50
2018-11-01T01:57:44.591Z,10.37
2018-11-01T02:00:12.205Z,12.30
2018-11-01T02:02:39.764Z,13.73
2018-11-01T02:05:07.319Z,10.23
2018-11-01T02:07:34.912Z,9.60
2018-11-01T02:10:02.473Z,9.67
2018-11-01T02:12:30.026Z,8.83
2018-11-01T02:14:57.612Z,7.73
2018-11-01T02:17:25.158Z,6.83
2018-11-01T02:19:52.721Z,7.00
2018-11-01T02:22:20.310Z,7.00
2018-11-01T02:24:47.869Z,7.10
2018-11-01T02:27:15.423Z,7.70
2018-11-01T02:29:43.371Z,7.70
2018-11-01T02:32:10.927Z,9.95
2018-11-01T02:34:38.527Z,8.60
2018-11-01T02:39:46.056Z,7.10
2018-11-01T02:42:14.408Z,7.87
2018-11-01T02:44:41.961Z,8.67
2018-11-01T02:47:10.507Z,8.60
2018-11-01T02:49:38.114Z,10.43
2018-11-01T02:52:05.663Z,9.23
2018-11-01T02:54:33.221Z,13.23
2018-11-01T02:57:00.819Z,11.13
2018-11-01T02:59:29.171Z,8.40
2018-11-01T03:01:57.020Z,8.17
2018-11-01T03:04:24.608Z,10.57
2018-11-01T03:06:52.160Z,9.17
2018-11-01T03:09:19.762Z,10.07
2018-11-01T03:11:48.090Z,10.13
2018-11-01T03:14:15.638Z,8.80
2018-11-01T03:16:43.231Z,9.10
2018-11-01T03:19:10.774Z,8.33
2018-11-01T03:21:38.410Z,10.70
2018-11-01T03:24:05.920Z,8.97
2018-11-01T03:26:33.817Z,9.07
2018-11-01T03:29:01.365Z,9.03
2018-11-01T03:31:29.680Z,7.77
2018-11-01T03:33:57.239Z,7.87
2018-11-01T03:36:24.820Z,11.30
2018-11-01T03:38:52.394Z,8.97
2018-11-01T03:41:19.981Z,8.23
2018-11-01T03:43:47.529Z,7.07
2018-11-01T03:46:15.086Z,7.97
2018-11-01T03:48:42.684Z,12.40
2018-11-01T03:51:11.009Z,21.10
2018-11-01T03:53:38.631Z,15.32
2018-11-01T03:56:06.170Z,15.40
2018-11-01T03:58:33.739Z,14.60
2018-11-01T04:01:02.062Z,7.83
2018-11-01T04:03:29.673Z,11.07
2018-11-01T04:05:57.216Z,8.57
2018-11-01T04:08:24.779Z,11.07
2018-11-01T04:10:52.368Z,8.23
2018-11-01T04:13:19.923Z,10.10
2018-11-01T04:15:47.509Z,9.40
2018-11-01T04:18:15.060Z,8.30
2018-11-01T04:20:42.610Z,8.73
2018-11-01T04:23:10.235Z,8.50
2018-11-01T04:25:38.611Z,10.13
2018-11-01T04:28:06.093Z,7.90
2018-11-01T04:30:33.656Z,11.10
2018-11-01T04:33:01.330Z,8.57
2018-11-01T04:35:29.573Z,12.07
2018-11-01T04:37:57.127Z,9.37
2018-11-01T04:40:24.733Z,16.53
2018-11-01T04:42:52.295Z,15.57
2018-11-01T04:45:19.845Z,16.17
2018-11-01T04:47:47.651Z,16.73
2018-11-01T04:50:15.004Z,14.13
2018-11-01T04:52:42.558Z,12.00
2018-11-01T04:55:10.140Z,9.33
2018-11-01T04:57:37.692Z,14.57
2018-11-01T05:00:05.310Z,10.53
2018-11-01T05:02:32.878Z,15.17
2018-11-01T05:05:00.473Z,10.30
2018-11-01T05:07:28.033Z,12.27
2018-11-01T05:09:55.593Z,14.07
2018-11-01T05:12:23.153Z,12.07
2018-11-01T05:14:50.753Z,12.80
2018-11-01T05:17:18.323Z,11.80
2018-11-01T05:19:45.878Z,12.20
2018-11-01T05:22:13.457Z,9.37
2018-11-01T05:24:41.066Z,14.03
2018-11-01T05:27:08.608Z,14.90
2018-11-01T05:29:36.964Z,22.67
2018-11-01T05:32:04.797Z,15.60
2018-11-01T05:34:32.420Z,11.03
2018-11-01T05:37:00.719Z,8.73
2018-11-01T05:39:28.279Z,6.77
2018-11-01T05:41:55.892Z,7.60
2018-11-01T05:44:23.426Z,7.63
2018-11-01T05:46:51.289Z,8.03
2018-11-01T05:49:18.889Z,8.13
2018-11-01T05:51:46.447Z,9.03
2018-11-01T05:54:14.299Z,7.20
2018-11-01T05:56:41.895Z,10.18
2018-11-01T05:59:10.216Z,9.70
2018-11-01T06:01:37.807Z,8.27
2018-11-01T06:04:05.364Z,7.07
2018-11-01T06:06:32.921Z,6.50
2018-11-01T06:09:00.472Z,6.67
2018-11-01T06:11:28.049Z,6.07
2018-11-01T06:13:55.897Z,6.43
2018-11-01T06:16:23.491Z,7.07
2018-11-01T06:18:51.046Z,7.47
2018-11-01T06:21:18.598Z,6.87
2018-11-01T06:23:46.183Z,6.10
2018-11-01T06:26:14.502Z,9.70
2018-11-01T06:28:42.103Z,6.90
2018-11-01T06:31:09.661Z,6.67
2018-11-01T06:33:37.251Z,10.40
2018-11-01T06:36:05.620Z,7.00
2018-11-01T06:38:33.171Z,7.23
2018-11-01T06:41:00.726Z,7.20
2018-11-01T06:43:28.324Z,10.30
2018-11-01T06:45:55.880Z,7.90
2018-11-01T06:48:24.252Z,8.03
2018-11-01T06:50:52.579Z,6.70
2018-11-01T06:53:20.172Z,7.13
2018-11-01T06:55:47.780Z,6.60
2018-11-01T06:58:15.387Z,6.00
2018-11-01T07:00:42.883Z,5.97
2018-11-01T07:03:11.256Z,7.07
2018-11-01T07:05:39.641Z,6.83
2018-11-01T07:08:07.129Z,7.87
2018-11-01T07:10:34.735Z,6.73
2018-11-01T07:13:02.291Z,6.70
2018-11-01T07:15:29.845Z,6.50
2018-11-01T07:17:57.438Z,6.40
2018-11-01T07:20:25.752Z,9.50
2018-11-01T07:22:53.298Z,6.60
2018-11-01T07:25:21.665Z,6.50
2018-11-01T07:27:49.247Z,6.03
2018-11-01T07:30:16.813Z,9.67
2018-11-01T07:32:44.470Z,10.27
2018-11-01T07:35:11.939Z,8.00
2018-11-01T07:37:39.555Z,7.70
2018-11-01T07:40:07.261Z,7.10
2018-11-01T07:42:35.451Z,6.80
2018-11-01T07:45:03.059Z,7.80
2018-11-01T07:47:30.616Z,7.40
2018-11-01T07:49:58.171Z,7.20
2018-11-01T07:52:25.791Z,13.20
2018-11-01T07:54:53.349Z,20.23
2018-11-01T07:57:20.967Z,11.07
2018-11-01T07:59:48.574Z,10.13
2018-11-01T08:02:16.134Z,11.60
2018-11-01T08:04:43.681Z,9.20
2018-11-01T08:07:11.263Z,8.63
2018-11-01T08:09:38.815Z,7.93
2018-11-01T08:12:06.437Z,8.37
2018-11-01T08:14:33.988Z,7.47
2018-11-01T08:17:01.546Z,8.17
2018-11-01T08:19:29.662Z,12.10
2018-11-01T08:21:57.198Z,11.40
2018-11-01T08:24:24.751Z,11.10
2018-11-01T08:26:52.362Z,12.80
2018-11-01T08:29:19.911Z,10.40
2018-11-01T08:31:47.463Z,12.87
2018-11-01T08:34:15.040Z,9.33
2018-11-01T08:36:42.597Z,7.60
2018-11-01T08:39:10.244Z,9.07
2018-11-01T08:41:37.758Z,9.07
2018-11-01T08:44:05.314Z,8.30
2018-11-01T08:46:32.902Z,11.77
2018-11-01T08:49:00.457Z,10.30
2018-11-01T08:51:28.534Z,8.33
2018-11-01T08:53:56.372Z,11.70
2018-11-01T08:56:23.933Z,8.20
2018-11-01T08:58:51.535Z,9.00
2018-11-01T09:01:19.104Z,8.17
2018-11-01T09:03:46.656Z,8.60
2018-11-01T09:06:14.256Z,7.77
2018-11-01T09:08:41.808Z,8.47
2018-11-01T09:11:09.371Z,7.97
2018-11-01T09:13:36.985Z,8.90
2018-11-01T09:16:04.550Z,10.50
2018-11-01T09:18:32.113Z,12.60
2018-11-01T09:21:00.570Z,17.17
2018-11-01T09:23:28.131Z,14.97
2018-11-01T09:25:55.693Z,11.57
2018-11-01T09:28:23.274Z,11.63
2018-11-01T09:30:50.825Z,9.80
2018-11-01T09:33:19.301Z,8.50
2018-11-01T09:35:46.919Z,11.85
2018-11-01T09:38:14.427Z,10.77
2018-11-01T09:40:42.066Z,9.67
2018-11-01T09:43:09.623Z,12.73
2018-11-01T09:45:37.182Z,16.40
2018-11-01T09:48:05.072Z,15.98
2018-11-01T09:50:32.634Z,10.73
2018-11-01T09:53:00.201Z,10.23
2018-11-01T09:55:27.844Z,9.50
2018-11-01T09:57:55.378Z,8.40
2018-11-01T10:00:22.938Z,7.60
2018-11-01T10:02:50.519Z,7.70
2018-11-01T10:05:18.105Z,7.63
2018-11-01T10:07:45.656Z,7.63
2018-11-01T10:10:13.213Z,6.90
2018-11-01T10:12:40.821Z,8.07
2018-11-01T10:15:08.457Z,10.17
2018-11-01T10:17:36.266Z,12.25
2018-11-01T10:20:04.280Z,10.65
2018-11-01T10:22:31.893Z,8.90
2018-11-01T10:24:59.387Z,9.63
2018-11-01T10:27:27.023Z,8.30
2018-11-01T10:29:55.656Z,8.30
2018-11-01T10:32:23.224Z,9.17
2018-11-01T10:34:50.810Z,9.00
2018-11-01T10:37:18.368Z,8.90
2018-11-01T10:39:45.969Z,10.37
2018-11-01T10:42:13.543Z,12.07
2018-11-01T10:44:41.101Z,12.02
2018-11-01T10:47:08.704Z,9.63
2018-11-01T10:49:36.264Z,9.27
2018-11-01T10:52:03.813Z,9.50
2018-11-01T10:54:31.412Z,9.33
2018-11-01T10:56:58.959Z,9.40
2018-11-01T10:59:26.515Z,9.57
2018-11-01T11:01:54.121Z,9.53
2018-11-01T11:04:21.922Z,12.57
2018-11-01T11:06:49.526Z,10.13
2018-11-01T11:09:17.852Z,10.43
2018-11-01T11:11:45.640Z,10.00
2018-11-01T11:14:13.284Z,10.43
2018-11-01T11:16:41.570Z,9.80
2018-11-01T11:19:09.942Z,9.97
2018-11-01T11:21:37.505Z,13.27
2018-11-01T11:24:05.073Z,11.33
2018-11-01T11:26:33.152Z,13.37
2018-11-01T11:29:00.712Z,15.00
2018-11-01T11:31:28.276Z,17.73
2018-11-01T11:33:55.886Z,13.37
2018-11-01T11:36:23.447Z,17.47
2018-11-01T11:38:51.014Z,16.27
2018-11-01T11:41:18.620Z,14.63
2018-11-01T11:43:46.181Z,13.63
2018-11-01T11:46:13.739Z,15.38
2018-11-01T11:48:41.346Z,15.63
2018-11-01T11:51:09.755Z,14.00
2018-11-01T11:53:37.236Z,12.57
2018-11-01T11:56:04.845Z,12.23
2018-11-01T11:58:33.182Z,10.20
2018-11-01T12:01:00.741Z,10.10
2018-11-01T12:03:28.352Z,11.87
2018-11-01T12:05:56.709Z,11.30
2018-11-01T12:08:24.226Z,10.67
2018-11-01T12:10:51.836Z,10.27
2018-11-01T12:13:19.393Z,10.33
2018-11-01T12:15:46.956Z,10.40
2018-11-01T12:18:14.559Z,9.83
2018-11-01T12:20:42.122Z,9.97
2018-11-01T12:23:10.016Z,9.90
2018-11-01T12:25:37.616Z,11.00
2018-11-01T12:28:05.176Z,11.03
2018-11-01T12:30:32.733Z,11.10
2018-11-01T12:33:00.345Z,11.67
2018-11-01T12:35:27.925Z,11.13
2018-11-01T12:37:55.461Z,11.27
2018-11-01T12:40:24.072Z,11.00
2018-11-01T12:42:51.637Z,11.03
2018-11-01T12:45:19.200Z,11.33
2018-11-01T12:47:47.058Z,10.93
2018-11-01T12:50:15.075Z,11.50
2018-11-01T12:52:42.498Z,10.43
2018-11-01T12:55:10.104Z,10.63
2018-11-01T12:57:38.433Z,11.43
2018-11-01T13:00:05.995Z,10.00
2018-11-01T13:02:33.634Z,10.83
2018-11-01T13:05:01.947Z,10.60
2018-11-01T13:07:29.510Z,10.83
2018-11-01T13:09:57.092Z,14.02
2018-11-01T13:12:24.653Z,11.70
2018-11-01T13:14:52.255Z,11.53
2018-11-01T13:17:19.822Z,10.27
2018-11-01T13:19:47.383Z,10.30
2018-11-01T13:22:14.967Z,10.97
2018-11-01T13:24:42.526Z,11.50
2018-11-01T13:27:10.125Z,11.30
2018-11-01T13:29:37.694Z,11.43
2018-11-01T13:32:06.021Z,11.87
2018-11-01T13:34:33.627Z,13.20
2018-11-01T13:37:01.183Z,12.67
2018-11-01T13:39:28.771Z,12.00
2018-11-01T13:41:56.824Z,12.67
2018-11-01T13:44:24.375Z,13.17
2018-11-01T13:46:51.938Z,13.03
2018-11-01T13:49:19.545Z,12.10
2018-11-01T13:51:47.110Z,10.90
2018-11-01T13:54:14.685Z,10.37
2018-11-01T13:56:42.421Z,11.23
2018-11-01T13:59:10.636Z,11.50
2018-11-01T14:01:38.539Z,11.83
2018-11-01T14:04:06.117Z,10.00
2018-11-01T14:06:34.454Z,10.03
2018-11-01T14:09:02.012Z,10.63
2018-11-01T14:11:29.605Z,12.50
2018-11-01T14:13:57.606Z,11.77
2018-11-01T14:16:25.545Z,10.40
2018-11-01T14:18:54.399Z,10.07
2018-11-01T14:21:21.958Z,11.60
2018-11-01T14:23:49.539Z,11.30
2018-11-01T14:26:17.101Z,13.10
2018-11-01T14:28:44.700Z,12.23
2018-11-01T14:31:13.089Z,10.27
2018-11-01T14:33:40.601Z,9.43
2018-11-01T14:36:08.950Z,11.70
2018-11-01T14:38:36.519Z,11.13
2018-11-01T14:41:04.395Z,11.40
2018-11-01T14:43:32.015Z,9.50
2018-11-01T14:45:59.575Z,9.80
2018-11-01T14:48:27.139Z,10.40
2018-11-01T14:50:54.738Z,9.20
2018-11-01T14:53:22.927Z,8.33
2018-11-01T14:55:51.109Z,8.53
2018-11-01T14:58:19.560Z,9.03
2018-11-01T15:00:45.816Z,7.67
2018-11-01T15:03:13.403Z,9.88
2018-11-01T15:05:40.972Z,8.90
2018-11-01T15:08:09.353Z,8.47
2018-11-01T15:10:37.712Z,8.30
2018-11-01T15:13:05.314Z,11.23
2018-11-01T15:15:32.834Z,7.70
2018-11-01T15:18:00.400Z,7.43
2018-11-01T15:20:28.094Z,8.40
2018-11-01T15:22:55.627Z,6.87
2018-11-01T15:25:23.163Z,9.10
2018-11-01T15:27:50.788Z,9.00
2018-11-01T15:30:18.403Z,7.03
2018-11-01T15:32:45.892Z,6.50
2018-11-01T15:35:14.267Z,7.03
2018-11-01T15:37:41.904Z,7.43
2018-11-01T15:40:10.140Z,7.47
2018-11-01T15:42:38.046Z,8.13
2018-11-01T15:45:05.605Z,7.53
2018-11-01T15:47:33.174Z,7.97
2018-11-01T15:50:00.751Z,8.33
2018-11-01T15:52:29.071Z,7.77
2018-11-01T15:54:56.698Z,8.20
2018-11-01T15:57:25.021Z,7.80
2018-11-01T15:59:52.578Z,8.23
2018-11-01T16:02:20.229Z,7.73
2018-11-01T16:04:47.739Z,7.67
2018-11-01T16:07:15.344Z,8.10
2018-11-01T16:09:42.910Z,10.80
2018-11-01T16:12:10.462Z,9.43
2018-11-01T16:14:38.045Z,8.83
2018-11-01T16:17:05.597Z,9.43
2018-11-01T16:19:33.236Z,8.33
2018-11-01T16:22:00.775Z,8.30
2018-11-01T16:24:28.341Z,12.00
2018-11-01T16:26:56.084Z,9.23
2018-11-01T16:29:23.542Z,9.27
2018-11-01T16:31:51.105Z,9.10
2018-11-01T16:34:19.076Z,9.27
2018-11-01T16:36:46.837Z,11.40
2018-11-01T16:39:14.228Z,9.20
2018-11-01T16:41:42.568Z,8.73
2018-11-01T16:44:10.180Z,8.27
2018-11-01T16:46:37.740Z,8.43
2018-11-01T16:49:06.063Z,8.37
2018-11-01T16:51:33.645Z,9.13
2018-11-01T16:54:01.225Z,10.13
2018-11-01T16:56:28.825Z,10.97
2018-11-01T16:58:56.391Z,11.73
2018-11-01T17:01:23.956Z,9.40
2018-11-01T17:03:51.572Z,9.20
2018-11-01T17:06:19.400Z,8.93
2018-11-01T17:08:47.090Z,8.87
2018-11-01T17:11:14.606Z,9.43
2018-11-01T17:13:42.901Z,9.43
2018-11-01T17:16:10.463Z,9.83
2018-11-01T17:18:38.090Z,9.53
2018-11-01T17:21:05.663Z,9.80
2018-11-01T17:23:33.228Z,10.17
2018-11-01T17:26:00.845Z,10.47
2018-11-01T17:28:28.407Z,9.17
2018-11-01T17:30:55.975Z,10.17
2018-11-01T17:33:23.590Z,10.90
2018-11-01T17:35:51.160Z,9.37
2018-11-01T17:38:19.025Z,9.83
2018-11-01T17:40:46.868Z,9.63
2018-11-01T17:43:14.493Z,9.43
2018-11-01T17:45:41.994Z,9.43
2018-11-01T17:48:09.620Z,10.27
2018-11-01T17:50:37.208Z,10.40
2018-11-01T17:53:04.737Z,10.80
2018-11-01T17:55:33.131Z,10.17
2018-11-01T17:58:00.699Z,9.33
2018-11-01T18:00:29.029Z,10.63
2018-11-01T18:02:56.666Z,10.13
2018-11-01T18:05:24.965Z,11.50
2018-11-01T18:07:52.529Z,10.40
2018-11-01T18:10:21.230Z,11.40
2018-11-01T18:12:48.759Z,10.90
2018-11-01T18:15:16.323Z,10.07
2018-11-01T18:17:43.935Z,11.10
2018-11-01T18:20:12.263Z,11.57
2018-11-01T18:22:39.819Z,11.13
2018-11-01T18:25:07.434Z,11.03
2018-11-01T18:27:35.000Z,11.67
2018-11-01T18:30:03.384Z,14.23
2018-11-01T18:32:31.928Z,13.20
2018-11-01T18:34:59.288Z,12.70
2018-11-01T18:37:26.892Z,11.53
2018-11-01T18:39:55.119Z,10.63
2018-11-01T18:42:22.737Z,11.53
2018-11-01T18:44:50.235Z,12.87
2018-11-01T18:47:17.828Z,12.77
2018-11-01T18:49:45.393Z,11.70
2018-11-01T18:52:13.046Z,17.17
2018-11-01T18:54:40.629Z,13.47
2018-11-01T18:57:08.172Z,14.33
2018-11-01T18:59:35.860Z,16.73
2018-11-01T19:02:03.353Z,15.10
2018-11-01T19:04:30.913Z,10.63
2018-11-01T19:06:58.554Z,10.50
2018-11-01T19:09:26.092Z,9.50
2018-11-01T19:11:53.659Z,9.17
2018-11-01T19:14:22.113Z,8.53
2018-11-01T19:16:49.601Z,8.43
2018-11-01T19:19:17.993Z,11.73
2018-11-01T19:21:45.675Z,10.83
2018-11-01T19:24:13.088Z,8.87
2018-11-01T19:26:40.748Z,8.60
2018-11-01T19:29:08.260Z,8.60
2018-11-01T19:31:35.829Z,7.93
2018-11-01T19:34:03.475Z,7.80
2018-11-01T19:36:31.589Z,8.53
2018-11-01T19:38:59.140Z,7.87
2018-11-01T19:41:26.702Z,9.57
2018-11-01T19:43:54.315Z,7.83
2018-11-01T19:46:21.877Z,7.97
2018-11-01T19:48:51.783Z,7.73
2018-11-01T19:51:21.082Z,6.90
2018-11-01T19:53:48.631Z,6.37
2018-11-01T19:56:16.191Z,6.70
2018-11-01T19:58:43.805Z,6.50
2018-11-01T20:01:11.384Z,8.50
2018-11-01T20:03:38.923Z,7.67
2018-11-01T20:06:06.553Z,5.83
2018-11-01T20:08:34.906Z,6.63
2018-11-01T20:11:02.433Z,7.43
2018-11-01T20:13:30.035Z,6.00
2018-11-01T20:15:57.618Z,4.47
2018-11-01T20:18:25.377Z,5.63
2018-11-01T20:20:52.976Z,5.43
2018-11-01T20:23:20.530Z,5.43
2018-11-01T20:25:48.096Z,5.00
2018-11-01T20:28:16.458Z,5.03
2018-11-01T20:30:44.017Z,4.23
2018-11-01T20:33:11.572Z,4.37
2018-11-01T20:35:39.146Z,4.87
2018-11-01T20:38:07.601Z,4.70
2018-11-01T20:40:35.077Z,3.80
2018-11-01T20:43:02.633Z,3.83
2018-11-01T20:45:30.950Z,3.80
2018-11-01T20:47:58.558Z,2.67
2018-11-01T20:50:26.182Z,3.10
2018-11-01T20:52:53.668Z,3.13
2018-11-01T20:55:21.276Z,3.07
2018-11-01T20:57:48.903Z,2.80
2018-11-01T21:00:16.395Z,2.50
2018-11-01T21:02:44.001Z,3.33
2018-11-01T21:05:11.636Z,4.82
2018-11-01T21:07:39.111Z,4.47
2018-11-01T21:10:07.879Z,4.83
2018-11-01T21:12:35.438Z,4.57
2018-11-01T21:15:03.009Z,4.83
2018-11-01T21:17:30.623Z,4.67
2018-11-01T21:19:58.178Z,4.63
2018-11-01T21:22:25.734Z,5.75
2018-11-01T21:24:53.313Z,4.90
2018-11-01T21:27:20.869Z,3.90
2018-11-01T21:29:48.479Z,3.97
2018-11-01T21:32:16.031Z,4.20
2018-11-01T21:34:43.584Z,4.00
2018-11-01T21:37:11.165Z,4.10
2018-11-01T21:39:38.729Z,5.07
2018-11-01T21:42:06.334Z,3.27
2018-11-01T21:44:33.882Z,3.40
2018-11-01T21:47:01.436Z,2.97
2018-11-01T21:49:29.397Z,3.20
2018-11-01T21:51:56.957Z,3.20
2018-11-01T21:54:24.515Z,4.30
2018-11-01T21:56:52.120Z,3.10
2018-11-01T21:59:19.673Z,2.47
2018-11-01T22:01:47.514Z,2.10
2018-11-01T22:04:15.101Z,3.27
2018-11-01T22:06:42.660Z,2.70
2018-11-01T22:09:10.224Z,3.33
2018-11-01T22:11:37.836Z,4.87
2018-11-01T22:14:05.394Z,4.95
2018-11-01T22:16:32.949Z,3.57
2018-11-01T22:19:00.561Z,2.87
2018-11-01T22:21:28.112Z,3.13
2018-11-01T22:23:55.672Z,2.03
2018-11-01T22:26:23.257Z,2.47
2018-11-01T22:28:50.917Z,2.78
2018-11-01T22:31:18.434Z,3.33
2018-11-01T22:33:45.983Z,4.70
2018-11-01T22:36:13.543Z,4.00
2018-11-01T22:38:41.169Z,3.27
2018-11-01T22:41:08.716Z,2.63
2018-11-01T22:43:36.263Z,2.20
2018-11-01T22:46:03.868Z,1.97
2018-11-01T22:48:32.212Z,2.12
2018-11-01T22:50:59.763Z,1.90
2018-11-01T22:53:27.384Z,1.40
2018-11-01T22:55:54.944Z,1.23
2018-11-01T22:58:22.498Z,1.17
2018-11-01T23:00:50.917Z,1.20
2018-11-01T23:03:18.489Z,1.10
2018-11-01T23:05:46.035Z,1.30
2018-11-01T23:08:13.599Z,1.20
2018-11-01T23:10:41.159Z,1.07
2018-11-01T23:13:09.242Z,1.30
2018-11-01T23:15:36.802Z,1.30
2018-11-01T23:18:04.361Z,1.20
2018-11-01T23:20:31.995Z,1.43
2018-11-01T23:22:59.557Z,0.80
2018-11-01T23:25:27.109Z,0.70
2018-11-01T23:27:54.719Z,1.10
2018-11-01T23:30:22.239Z,1.00
2018-11-01T23:32:49.859Z,1.17
2018-11-01T23:35:17.411Z,1.23
2018-11-01T23:38:02.984Z,1.30
2018-11-01T23:40:48.883Z,1.20
2018-11-01T23:43:34.540Z,2.00
2018-11-01T23:46:20.363Z,4.50
2018-11-01T23:48:47.929Z,1.93
2018-11-01T23:51:15.492Z,2.20
2018-11-01T23:53:43.072Z,2.70
2018-11-01T23:56:11.428Z,2.70
2018-11-01T23:58:38.987Z,1.90
